createdAt,value
2022-08-11T00:00:37.600Z,3.80
2022-08-11T00:02:41.400Z,2.20
2022-08-11T00:04:43.390Z,5.53
2022-08-11T00:06:45.501Z,2.10
2022-08-11T00:08:49.723Z,4.28
2022-08-11T00:10:56.362Z,2.83
2022-08-11T00:12:59.894Z,3.53
2022-08-11T00:15:01.367Z,1.52
2022-08-11T00:17:04.411Z,2.45
2022-08-11T00:19:05.836Z,1.85
2022-08-11T00:21:07.701Z,6.25
2022-08-11T00:23:10.570Z,3.42
2022-08-11T00:25:16.611Z,1.60
2022-08-11T00:27:17.931Z,3.38
2022-08-11T00:29:19.993Z,3.15
2022-08-11T00:31:21.278Z,4.03
2022-08-11T00:33:44.518Z,2.78
2022-08-11T00:35:51.631Z,3.65
2022-08-11T00:37:59.354Z,3.00
2022-08-11T00:40:03.262Z,3.17
2022-08-11T00:42:17.983Z,2.20
2022-08-11T00:44:31.573Z,3.38
2022-08-11T00:46:33.027Z,2.55
2022-08-11T00:48:46.043Z,3.33
2022-08-11T00:50:52.721Z,3.10
2022-08-11T00:53:08.687Z,1.60
2022-08-11T00:55:22.247Z,3.17
2022-08-11T00:57:39.495Z,2.55
2022-08-11T00:59:43.371Z,3.90
2022-08-11T01:01:51.439Z,2.53
2022-08-11T01:04:11.183Z,2.47
2022-08-11T01:06:32.475Z,2.90
2022-08-11T01:08:41.835Z,2.13
2022-08-11T01:10:49.127Z,2.80
2022-08-11T01:13:02.512Z,4.10
2022-08-11T01:15:12.962Z,4.93
2022-08-11T01:17:26.387Z,3.88
2022-08-11T01:20:45.415Z,1.85
2022-08-11T01:22:34.595Z,2.25
2022-08-11T01:24:38.500Z,4.55
2022-08-11T01:26:58.261Z,2.00
2022-08-11T01:29:03.106Z,2.88
2022-08-11T01:31:11.356Z,2.70
2022-08-11T01:33:12.995Z,2.10
2022-08-11T01:35:28.271Z,1.95
2022-08-11T01:37:48.891Z,2.45
2022-08-11T01:40:25.454Z,1.95
2022-08-11T01:43:04.114Z,2.22
2022-08-11T01:45:20.495Z,2.38
2022-08-11T01:47:54.101Z,1.63
2022-08-11T01:50:07.795Z,1.70
2022-08-11T01:52:14.535Z,3.10
2022-08-11T01:54:27.306Z,3.20
2022-08-11T01:56:52.539Z,1.63
2022-08-11T01:59:11.779Z,3.00
2022-08-11T02:01:25.263Z,2.72
2022-08-11T02:03:37.647Z,2.13
2022-08-11T02:05:38.891Z,1.92
2022-08-11T02:07:52.715Z,1.90
2022-08-11T02:10:36.439Z,3.03
2022-08-11T02:12:52.168Z,1.83
2022-08-11T02:15:07.805Z,2.72
2022-08-11T02:17:11.838Z,1.95
2022-08-11T02:19:31.957Z,5.22
2022-08-11T02:22:05.059Z,2.67
2022-08-11T02:24:14.812Z,3.78
2022-08-11T02:26:16.278Z,1.85
2022-08-11T02:28:38.957Z,4.60
2022-08-11T02:32:25.249Z,3.70
2022-08-11T02:33:41.914Z,3.42
2022-08-11T02:35:49.809Z,3.53
2022-08-11T02:38:09.789Z,2.08
2022-08-11T02:40:40.515Z,4.97
2022-08-11T02:42:52.175Z,2.50
2022-08-11T02:45:12.023Z,3.80
2022-08-11T02:47:28.687Z,2.53
2022-08-11T02:50:06.425Z,2.10
2022-08-11T02:52:15.458Z,4.10
2022-08-11T02:54:23.851Z,4.45
2022-08-11T02:56:28.408Z,3.22
2022-08-11T02:58:39.322Z,3.22
2022-08-11T03:00:47.848Z,3.03
2022-08-11T03:02:55.592Z,3.25
2022-08-11T03:05:08.064Z,2.92
2022-08-11T03:07:29.200Z,5.05
2022-08-11T03:09:37.070Z,4.57
2022-08-11T03:12:14.385Z,2.15
2022-08-11T03:15:06.329Z,2.03
2022-08-11T03:17:16.554Z,1.85
2022-08-11T03:19:33.234Z,3.25
2022-08-11T03:22:01.909Z,2.80
2022-08-11T03:24:11.133Z,1.92
2022-08-11T03:26:12.392Z,2.65
2022-08-11T03:28:29.258Z,3.95
2022-08-11T03:30:46.668Z,4.18
2022-08-11T03:33:07.905Z,3.35
2022-08-11T03:35:09.722Z,6.38
2022-08-11T03:37:50.893Z,2.25
2022-08-11T03:39:56.824Z,3.97
2022-08-11T03:42:05.888Z,3.38
2022-08-11T03:46:23.743Z,2.65
2022-08-11T03:48:28.155Z,2.15
2022-08-11T03:50:44.354Z,4.40
2022-08-11T03:52:58.441Z,3.30
2022-08-11T03:55:07.367Z,3.55
2022-08-11T03:57:08.916Z,2.65
2022-08-11T03:59:30.466Z,2.15
2022-08-11T04:01:33.769Z,3.60
2022-08-11T04:03:51.806Z,2.78
2022-08-11T04:06:19.398Z,2.65
2022-08-11T04:08:36.597Z,3.33
2022-08-11T04:10:47.364Z,3.38
2022-08-11T04:13:07.315Z,3.40
2022-08-11T04:15:37.303Z,4.28
2022-08-11T04:17:38.603Z,4.00
2022-08-11T04:19:39.909Z,3.05
2022-08-11T04:21:47.126Z,2.40
2022-08-11T04:24:13.137Z,3.55
2022-08-11T04:26:37.417Z,3.60
2022-08-11T04:28:50.349Z,4.35
2022-08-11T04:31:05.569Z,2.97
2022-08-11T04:33:07.220Z,3.97
2022-08-11T04:35:28.238Z,2.63
2022-08-11T04:39:49.246Z,4.20
2022-08-11T04:42:37.782Z,3.92
2022-08-11T04:45:02.586Z,5.15
2022-08-11T04:47:12.968Z,4.10
2022-08-11T04:49:44.184Z,4.25
2022-08-11T04:52:35.969Z,5.13
2022-08-11T04:55:12.674Z,2.50
2022-08-11T04:57:40.845Z,3.47
2022-08-11T05:00:18.781Z,2.58
2022-08-11T05:02:38.773Z,3.63
2022-08-11T05:04:58.922Z,3.78
2022-08-11T05:07:18.707Z,3.67
2022-08-11T05:09:20.248Z,4.47
2022-08-11T05:11:36.929Z,6.20
2022-08-11T05:14:13.631Z,3.95
2022-08-11T05:16:35.511Z,5.25
2022-08-11T05:18:56.797Z,5.40
2022-08-11T05:21:20.648Z,8.63
2022-08-11T05:24:00.149Z,4.85
2022-08-11T05:26:47.179Z,3.40
2022-08-11T05:29:08.258Z,5.07
2022-08-11T05:31:52.114Z,3.42
2022-08-11T05:34:16.397Z,5.97
2022-08-11T05:36:23.553Z,2.30
2022-08-11T05:38:45.588Z,4.63
2022-08-11T05:41:08.799Z,4.72
2022-08-11T05:43:31.175Z,6.70
2022-08-11T05:46:02.417Z,7.30
2022-08-11T05:48:23.974Z,8.15
2022-08-11T05:50:44.167Z,9.50
2022-08-11T05:53:09.337Z,5.72
2022-08-11T05:55:33.644Z,6.57
2022-08-11T05:57:49.397Z,4.78
2022-08-11T05:59:59.170Z,4.13
2022-08-11T06:02:05.607Z,7.40
2022-08-11T06:04:16.150Z,3.88
2022-08-11T06:08:19.215Z,6.47
2022-08-11T06:10:27.300Z,11.80
2022-08-11T06:12:37.188Z,7.65
2022-08-11T06:14:43.183Z,8.90
2022-08-11T06:16:47.860Z,6.15
2022-08-11T06:18:49.596Z,9.23
2022-08-11T06:20:52.302Z,7.15
2022-08-11T06:22:58.750Z,3.70
2022-08-11T06:25:00.827Z,10.57
2022-08-11T06:27:18.628Z,16.10
2022-08-11T06:29:20.205Z,6.38
2022-08-11T06:31:39.092Z,4.18
2022-08-11T06:33:55.447Z,6.15
2022-08-11T06:36:10.730Z,5.75
2022-08-11T06:38:16.375Z,6.10
2022-08-11T06:40:20.515Z,3.38
2022-08-11T06:42:27.998Z,8.52
2022-08-11T06:44:32.492Z,7.55
2022-08-11T06:46:38.774Z,4.53
2022-08-11T06:48:40.819Z,4.38
2022-08-11T06:51:06.730Z,4.40
2022-08-11T06:53:12.596Z,3.83
2022-08-11T06:55:56.138Z,7.15
2022-08-11T06:58:15.390Z,4.30
2022-08-11T07:02:43.381Z,6.82
2022-08-11T07:04:48.984Z,7.15
2022-08-11T07:07:21.465Z,6.38
2022-08-11T07:10:13.653Z,4.10
2022-08-11T07:12:50.205Z,6.68
2022-08-11T07:15:11.401Z,7.70
2022-08-11T07:17:15.804Z,6.93
2022-08-11T07:19:40.141Z,7.25
2022-08-11T07:22:03.721Z,5.55
2022-08-11T07:24:59.644Z,8.55
2022-08-11T07:27:18.130Z,7.95
2022-08-11T07:29:21.488Z,5.72
2022-08-11T07:31:29.187Z,5.07
2022-08-11T07:34:07.959Z,4.22
2022-08-11T07:36:04.526Z,3.55
2022-08-11T07:38:08.138Z,4.78
2022-08-11T07:40:10.586Z,6.82
2022-08-11T07:42:13.668Z,6.03
2022-08-11T07:44:16.873Z,6.97
2022-08-11T07:46:37.679Z,6.90
2022-08-11T07:49:00.257Z,6.35
2022-08-11T07:51:20.426Z,6.57
2022-08-11T07:53:21.979Z,3.83
2022-08-11T07:55:48.838Z,5.43
2022-08-11T07:58:19.426Z,3.95
2022-08-11T08:00:40.067Z,6.32
2022-08-11T08:03:01.614Z,6.80
2022-08-11T08:05:24.464Z,6.10
2022-08-11T08:07:44.661Z,8.77
2022-08-11T08:10:08.387Z,3.97
2022-08-11T08:12:28.908Z,4.40
2022-08-11T08:14:48.987Z,4.50
2022-08-11T08:17:09.050Z,3.97
2022-08-11T08:19:14.861Z,4.03
2022-08-11T08:21:16.834Z,3.60
2022-08-11T08:23:32.765Z,2.53
2022-08-11T08:25:39.191Z,6.22
2022-08-11T08:27:43.428Z,3.83
2022-08-11T08:30:03.972Z,5.28
2022-08-11T08:32:05.491Z,3.80
2022-08-11T08:34:06.835Z,2.40
2022-08-11T08:36:12.683Z,4.97
2022-08-11T08:38:15.199Z,3.78
2022-08-11T08:40:16.588Z,2.72
2022-08-11T08:42:20.066Z,3.60
2022-08-11T08:44:40.912Z,3.60
2022-08-11T08:46:44.693Z,4.55
2022-08-11T08:48:46.964Z,5.55
2022-08-11T08:51:11.248Z,4.50
2022-08-11T08:53:14.680Z,5.53
2022-08-11T08:55:19.562Z,5.18
2022-08-11T08:57:22.727Z,5.18
2022-08-11T08:59:25.691Z,5.03
2022-08-11T09:01:29.521Z,3.30
2022-08-11T09:04:04.668Z,4.10
2022-08-11T09:05:54.188Z,3.55
2022-08-11T09:07:57.975Z,5.05
2022-08-11T09:10:00.085Z,4.95
2022-08-11T09:12:05.070Z,4.35
2022-08-11T09:14:10.331Z,4.10
2022-08-11T09:16:16.086Z,3.45
2022-08-11T09:18:18.056Z,7.03
2022-08-11T09:20:20.612Z,5.50
2022-08-11T09:22:41.120Z,3.97
2022-08-11T09:25:01.291Z,5.32
2022-08-11T09:27:05.224Z,6.13
2022-08-11T09:29:08.132Z,5.70
2022-08-11T09:31:11.795Z,6.18
2022-08-11T09:33:15.252Z,7.75
2022-08-11T09:35:18.135Z,5.70
2022-08-11T09:37:54.687Z,3.42
2022-08-11T09:40:16.513Z,4.05
2022-08-11T09:42:23.228Z,2.72
2022-08-11T09:44:43.693Z,4.03
2022-08-11T09:46:45.206Z,7.57
2022-08-11T09:48:47.110Z,5.18
2022-08-11T09:50:49.888Z,5.10
2022-08-11T09:53:16.820Z,7.05
2022-08-11T09:55:14.543Z,3.92
2022-08-11T09:57:37.908Z,5.53
2022-08-11T09:59:40.746Z,4.70
2022-08-11T10:01:50.537Z,2.97
2022-08-11T10:03:52.011Z,4.78
2022-08-11T10:06:22.520Z,6.05
2022-08-11T10:08:37.623Z,2.50
2022-08-11T10:10:39.546Z,3.25
2022-08-11T10:12:42.247Z,4.70
2022-08-11T10:15:07.090Z,7.03
2022-08-11T10:17:09.601Z,3.20
2022-08-11T10:19:10.967Z,4.40
2022-08-11T10:21:15.143Z,9.70
2022-08-11T10:23:35.741Z,12.23
2022-08-11T10:26:16.294Z,3.38
2022-08-11T10:28:32.938Z,4.30
2022-08-11T10:30:58.032Z,2.92
2022-08-11T10:33:36.744Z,3.85
2022-08-11T10:35:41.298Z,5.25
2022-08-11T10:38:15.965Z,3.63
2022-08-11T10:40:06.924Z,3.33
2022-08-11T10:42:41.719Z,3.35
2022-08-11T10:44:51.758Z,3.55
2022-08-11T10:47:11.470Z,3.17
2022-08-11T10:49:13.156Z,2.47
2022-08-11T10:51:49.895Z,2.50
2022-08-11T10:54:00.324Z,3.85
2022-08-11T10:56:21.294Z,5.18
2022-08-11T10:58:41.487Z,3.60
2022-08-11T11:00:44.809Z,2.90
2022-08-11T11:02:46.656Z,2.90
2022-08-11T11:05:09.298Z,4.13
2022-08-11T11:07:16.820Z,3.08
2022-08-11T11:09:25.670Z,2.55
2022-08-11T11:11:48.747Z,3.40
2022-08-11T11:14:10.109Z,2.70
2022-08-11T11:16:31.100Z,3.60
2022-08-11T11:18:35.936Z,3.15
2022-08-11T11:20:55.717Z,6.35
2022-08-11T11:23:05.659Z,3.67
2022-08-11T11:25:17.674Z,3.58
2022-08-11T11:27:32.887Z,4.18
2022-08-11T11:29:50.578Z,2.60
2022-08-11T11:32:10.654Z,3.78
2022-08-11T11:34:20.763Z,2.75
2022-08-11T11:36:22.115Z,3.95
2022-08-11T11:38:24.266Z,4.18
2022-08-11T11:40:28.743Z,2.72
2022-08-11T11:42:33.491Z,3.33
2022-08-11T11:44:37.543Z,3.58
2022-08-11T11:46:39.692Z,2.92
2022-08-11T11:48:41.551Z,3.97
2022-08-11T11:50:43.019Z,4.50
2022-08-11T11:52:44.362Z,4.72
2022-08-11T11:54:46.139Z,2.58
2022-08-11T11:56:47.731Z,3.22
2022-08-11T11:59:08.292Z,2.67
2022-08-11T12:01:16.110Z,3.08
2022-08-11T12:03:18.078Z,3.40
2022-08-11T12:05:19.495Z,3.15
2022-08-11T12:07:39.653Z,2.53
2022-08-11T12:12:01.529Z,2.33
2022-08-11T12:14:04.648Z,2.72
2022-08-11T12:16:35.430Z,3.05
2022-08-11T12:18:34.732Z,2.83
2022-08-11T12:20:37.261Z,3.47
2022-08-11T12:22:57.404Z,3.05
2022-08-11T12:25:17.462Z,4.03
2022-08-11T12:27:24.252Z,3.63
2022-08-11T12:29:27.774Z,3.97
2022-08-11T12:31:29.676Z,4.28
2022-08-11T12:33:31.000Z,3.80
2022-08-11T12:35:35.104Z,7.93
2022-08-11T12:37:40.963Z,3.22
2022-08-11T12:40:43.446Z,4.72
2022-08-11T12:42:55.560Z,5.18
2022-08-11T12:45:22.536Z,3.17
2022-08-11T12:47:24.543Z,3.47
2022-08-11T12:50:03.416Z,3.00
2022-08-11T12:52:15.041Z,2.95
2022-08-11T12:54:20.063Z,3.42
2022-08-11T12:56:41.320Z,3.85
2022-08-11T12:58:43.245Z,4.28
2022-08-11T13:01:07.295Z,3.20
2022-08-11T13:03:33.061Z,3.15
2022-08-11T13:05:34.898Z,2.78
2022-08-11T13:07:50.010Z,2.95
2022-08-11T13:09:53.218Z,4.68
2022-08-11T13:12:13.084Z,4.95
2022-08-11T13:14:15.670Z,2.80
2022-08-11T13:16:17.727Z,3.88
2022-08-11T13:18:23.024Z,3.53
2022-08-11T13:20:24.948Z,4.38
2022-08-11T13:22:26.535Z,4.00
2022-08-11T13:24:28.596Z,5.15
2022-08-11T13:26:43.114Z,4.47
2022-08-11T13:28:51.764Z,3.53
2022-08-11T13:31:12.041Z,3.47
2022-08-11T13:35:17.503Z,3.35
2022-08-11T13:37:20.213Z,5.30
2022-08-11T13:39:47.104Z,3.28
2022-08-11T13:41:48.862Z,3.75
2022-08-11T13:43:50.726Z,4.88
2022-08-11T13:46:12.440Z,3.17
2022-08-11T13:48:15.651Z,4.15
2022-08-11T13:50:18.557Z,3.00
2022-08-11T13:52:20.408Z,3.22
2022-08-11T13:54:27.206Z,4.55
2022-08-11T13:56:29.166Z,3.97
2022-08-11T13:58:40.153Z,4.50
2022-08-11T14:00:52.678Z,3.30
2022-08-11T14:02:55.835Z,3.45
2022-08-11T14:04:58.965Z,3.40
2022-08-11T14:07:02.987Z,4.07
2022-08-11T14:09:07.735Z,4.22
2022-08-11T14:12:22.263Z,3.20
2022-08-11T14:13:50.592Z,4.75
2022-08-11T14:15:52.146Z,3.45
2022-08-11T14:17:57.311Z,3.45
2022-08-11T14:20:01.558Z,4.95
2022-08-11T14:22:23.138Z,3.88
2022-08-11T14:24:25.173Z,4.55
2022-08-11T14:26:27.674Z,4.97
2022-08-11T14:28:35.252Z,3.40
2022-08-11T14:31:01.191Z,3.67
2022-08-11T14:33:16.528Z,3.42
2022-08-11T14:35:19.138Z,3.88
2022-08-11T14:37:25.462Z,3.80
2022-08-11T14:39:28.321Z,3.67
2022-08-11T14:42:10.220Z,3.70
2022-08-11T14:44:29.730Z,3.80
2022-08-11T14:48:52.949Z,3.17
2022-08-11T14:50:54.649Z,3.97
2022-08-11T14:52:58.155Z,3.83
2022-08-11T14:55:18.275Z,5.45
2022-08-11T14:57:20.901Z,4.10
2022-08-11T14:59:43.199Z,4.63
2022-08-11T15:02:03.022Z,4.25
2022-08-11T15:04:34.284Z,4.63
2022-08-11T15:06:28.562Z,4.72
2022-08-11T15:08:49.578Z,4.43
2022-08-11T15:10:52.070Z,3.67
2022-08-11T15:12:53.574Z,3.50
2022-08-11T15:15:13.991Z,3.92
2022-08-11T15:17:15.538Z,3.83
2022-08-11T15:19:21.526Z,3.40
2022-08-11T15:21:41.871Z,5.22
2022-08-11T15:26:08.756Z,3.47
2022-08-11T15:28:28.977Z,3.63
2022-08-11T15:30:49.326Z,3.40
2022-08-11T15:33:10.577Z,4.00
2022-08-11T15:35:38.960Z,7.00
2022-08-11T15:37:42.890Z,3.25
2022-08-11T15:40:31.242Z,4.15
2022-08-11T15:42:50.955Z,3.38
2022-08-11T15:45:15.032Z,4.05
2022-08-11T15:47:17.986Z,7.78
2022-08-11T15:49:23.748Z,5.43
2022-08-11T15:51:27.819Z,3.85
2022-08-11T15:53:33.162Z,6.32
2022-08-11T15:55:35.606Z,4.05
2022-08-11T15:57:56.138Z,3.85
2022-08-11T16:00:16.167Z,3.78
2022-08-11T16:02:39.231Z,3.80
2022-08-11T16:04:41.602Z,3.67
2022-08-11T16:06:49.320Z,3.78
2022-08-11T16:08:52.110Z,5.90
2022-08-11T16:10:56.117Z,3.72
2022-08-11T16:13:05.585Z,5.55
2022-08-11T16:15:27.700Z,4.65
2022-08-11T16:17:31.445Z,3.50
2022-08-11T16:19:35.667Z,4.38
2022-08-11T16:21:39.134Z,3.15
2022-08-11T16:23:42.957Z,9.40
2022-08-11T16:27:01.315Z,4.10
2022-08-11T16:28:06.498Z,5.85
2022-08-11T16:30:08.374Z,3.60
2022-08-11T16:32:17.086Z,3.17
2022-08-11T16:34:36.995Z,3.88
2022-08-11T16:36:57.485Z,4.30
2022-08-11T16:38:59.777Z,3.78
2022-08-11T16:41:10.980Z,2.88
2022-08-11T16:43:34.118Z,4.18
2022-08-11T16:45:55.029Z,3.13
2022-08-11T16:48:02.865Z,3.40
2022-08-11T16:50:05.456Z,4.60
2022-08-11T16:52:10.896Z,3.03
2022-08-11T16:54:13.454Z,5.07
2022-08-11T16:56:27.146Z,4.82
2022-08-11T16:58:48.930Z,3.65
2022-08-11T17:00:50.950Z,2.90
2022-08-11T17:03:11.871Z,3.83
2022-08-11T17:05:33.766Z,4.90
2022-08-11T17:08:01.224Z,8.70
2022-08-11T17:10:39.694Z,3.30
2022-08-11T17:13:05.105Z,3.20
2022-08-11T17:15:29.424Z,2.90
2022-08-11T17:17:33.626Z,3.70
2022-08-11T17:20:42.644Z,5.05
2022-08-11T17:22:18.414Z,3.38
2022-08-11T17:24:19.923Z,2.63
2022-08-11T17:26:24.251Z,3.55
2022-08-11T17:28:26.085Z,2.88
2022-08-11T17:30:48.774Z,2.85
2022-08-11T17:33:09.525Z,3.45
2022-08-11T17:35:31.592Z,3.08
2022-08-11T17:37:34.096Z,4.35
2022-08-11T17:39:35.985Z,3.35
2022-08-11T17:41:56.502Z,4.72
2022-08-11T17:44:16.311Z,3.22
2022-08-11T17:46:36.983Z,4.50
2022-08-11T17:48:47.446Z,4.85
2022-08-11T17:50:51.008Z,5.00
2022-08-11T17:53:11.040Z,2.95
2022-08-11T17:55:52.040Z,4.05
2022-08-11T17:58:10.924Z,3.30
2022-08-11T18:00:12.803Z,3.33
2022-08-11T18:02:34.341Z,3.42
2022-08-11T18:04:36.514Z,3.20
2022-08-11T18:06:38.641Z,5.97
2022-08-11T18:09:08.930Z,4.13
2022-08-11T18:12:10.047Z,3.28
2022-08-11T18:16:29.587Z,3.67
2022-08-11T18:18:49.573Z,3.00
2022-08-11T18:21:09.868Z,2.95
2022-08-11T18:26:02.308Z,5.00
2022-08-11T18:28:23.708Z,3.47
2022-08-11T18:30:49.112Z,2.95
2022-08-11T18:35:53.842Z,3.83
2022-08-11T18:38:15.189Z,3.53
2022-08-11T18:40:37.591Z,2.72
2022-08-11T18:42:59.351Z,4.18
2022-08-11T18:45:21.925Z,2.70
2022-08-11T18:47:44.078Z,4.28
2022-08-11T18:50:08.438Z,5.43
2022-08-11T18:52:33.515Z,4.38
2022-08-11T18:54:55.149Z,7.38
2022-08-11T18:57:16.394Z,3.63
2022-08-11T18:59:38.546Z,4.95
2022-08-11T19:01:58.530Z,3.15
2022-08-11T19:04:20.545Z,3.00
2022-08-11T19:06:42.126Z,3.50
2022-08-11T19:09:06.255Z,4.93
2022-08-11T19:11:27.008Z,4.80
2022-08-11T19:13:49.811Z,2.90
2022-08-11T19:16:12.485Z,4.43
2022-08-11T19:18:35.319Z,3.08
2022-08-11T19:20:55.578Z,4.65
2022-08-11T19:25:35.430Z,3.30
2022-08-11T19:27:56.669Z,3.78
2022-08-11T19:30:17.085Z,4.35
2022-08-11T19:32:37.813Z,4.45
2022-08-11T19:34:58.403Z,5.20
2022-08-11T19:37:23.550Z,4.75
2022-08-11T19:39:44.512Z,4.18
2022-08-11T19:42:05.359Z,6.15
2022-08-11T19:44:25.531Z,3.03
2022-08-11T19:46:45.121Z,5.18
2022-08-11T19:49:07.871Z,10.05
2022-08-11T19:51:28.718Z,5.18
2022-08-11T19:53:48.980Z,3.38
2022-08-11T19:58:28.967Z,5.13
2022-08-11T20:00:49.354Z,4.63
2022-08-11T20:03:09.612Z,3.38
2022-08-11T20:07:50.369Z,7.15
2022-08-11T20:10:10.644Z,5.20
2022-08-11T20:14:52.196Z,3.10
2022-08-11T20:17:12.829Z,4.78
2022-08-11T20:19:54.839Z,5.25
2022-08-11T20:22:14.778Z,4.68
2022-08-11T20:24:36.417Z,6.03
2022-08-11T20:26:56.209Z,3.47
2022-08-11T20:29:17.367Z,6.80
2022-08-11T20:31:39.658Z,5.55
2022-08-11T20:34:01.931Z,5.15
2022-08-11T20:36:22.079Z,5.10
2022-08-11T20:38:42.841Z,14.35
2022-08-11T20:41:02.663Z,4.35
2022-08-11T20:44:07.128Z,7.13
2022-08-11T20:48:24.134Z,11.98
2022-08-11T20:50:46.039Z,7.38
2022-08-11T20:53:06.000Z,11.27
2022-08-11T20:55:51.205Z,15.00
2022-08-11T20:58:07.504Z,10.30
2022-08-11T21:00:39.134Z,12.00
2022-08-11T21:03:00.413Z,4.78
2022-08-11T21:05:21.644Z,12.80
2022-08-11T21:08:03.294Z,6.53
2022-08-11T21:10:24.302Z,7.20
2022-08-11T21:12:50.557Z,13.98
2022-08-11T21:15:14.146Z,6.10
2022-08-11T21:18:00.628Z,5.40
2022-08-11T21:20:27.751Z,12.57
2022-08-11T21:22:59.119Z,9.93
2022-08-11T21:25:27.262Z,7.05
2022-08-11T21:27:48.110Z,15.63
2022-08-11T21:30:08.300Z,13.52
2022-08-11T21:32:29.128Z,12.05
2022-08-11T21:34:49.398Z,12.82
2022-08-11T21:39:29.232Z,11.40
2022-08-11T21:41:50.456Z,23.65
2022-08-11T21:44:10.827Z,20.20
2022-08-11T21:48:54.994Z,20.50
2022-08-11T21:51:14.874Z,29.02
2022-08-11T21:53:35.559Z,20.45
2022-08-11T21:55:55.744Z,10.35
2022-08-11T21:58:16.134Z,13.35
2022-08-11T22:00:36.874Z,10.35
2022-08-11T22:02:57.165Z,3.42
2022-08-11T22:07:39.396Z,4.63
2022-08-11T22:10:01.525Z,5.05
2022-08-11T22:15:04.899Z,6.90
2022-08-11T22:17:24.971Z,7.25
2022-08-11T22:19:45.429Z,4.05
2022-08-11T22:24:30.156Z,8.02
2022-08-11T22:26:53.226Z,5.28
2022-08-11T22:29:13.363Z,3.40
2022-08-11T22:31:33.410Z,3.97
2022-08-11T22:34:02.666Z,6.22
2022-08-11T22:36:23.720Z,6.68
2022-08-11T22:41:03.455Z,3.38
2022-08-11T22:43:23.763Z,5.80
2022-08-11T22:45:43.574Z,8.13
2022-08-11T22:48:04.585Z,7.25
2022-08-11T22:50:26.006Z,3.50
2022-08-11T22:52:49.432Z,6.75
2022-08-11T22:55:11.518Z,4.38
2022-08-11T22:57:33.130Z,3.30
2022-08-11T22:59:54.312Z,4.03
2022-08-11T23:02:14.696Z,5.60
2022-08-11T23:06:55.154Z,4.00
2022-08-11T23:12:06.687Z,3.83
2022-08-11T23:14:15.049Z,3.28
2022-08-11T23:16:35.826Z,4.20
2022-08-11T23:18:56.670Z,3.47
2022-08-11T23:21:17.520Z,3.42
2022-08-11T23:23:37.991Z,4.30
2022-08-11T23:25:58.554Z,4.32
2022-08-11T23:28:19.756Z,5.18
2022-08-11T23:30:40.022Z,4.97
2022-08-11T23:33:01.649Z,4.22
2022-08-11T23:35:39.564Z,3.25
2022-08-11T23:38:03.291Z,3.60
2022-08-11T23:40:23.407Z,3.53
2022-08-11T23:42:46.282Z,3.25
2022-08-11T23:45:06.501Z,5.07
2022-08-11T23:47:30.164Z,4.05
2022-08-11T23:52:10.818Z,4.28
2022-08-11T23:54:36.920Z,3.30
2022-08-11T23:56:57.441Z,3.20
2022-08-11T23:59:17.453Z,3.55
